sensor_id;sensor_type;location;lat;lon;timestamp;P1;durP1;ratioP1;P2;durP2;ratioP2
76475;SDS011;65308;50.078;14.854;2024-03-22T00:01:45;14.80;;;7.22;;
76475;SDS011;65308;50.078;14.854;2024-03-22T00:04:11;13.68;;;7.20;;
76475;SDS011;65308;50.078;14.854;2024-03-22T00:06:38;12.15;;;6.80;;
76475;SDS011;65308;50.078;14.854;2024-03-22T00:09:03;16.30;;;8.30;;
76475;SDS011;65308;50.078;14.854;2024-03-22T00:11:30;15.35;;;7.70;;
76475;SDS011;65308;50.078;14.854;2024-03-22T00:13:56;16.52;;;8.00;;
76475;SDS011;65308;50.078;14.854;2024-03-22T00:16:22;12.82;;;7.63;;
76475;SDS011;65308;50.078;14.854;2024-03-22T00:18:49;14.75;;;8.23;;
76475;SDS011;65308;50.078;14.854;2024-03-22T00:21:16;13.68;;;7.47;;
76475;SDS011;65308;50.078;14.854;2024-03-22T00:23:42;13.52;;;7.28;;
76475;SDS011;65308;50.078;14.854;2024-03-22T00:26:09;16.05;;;7.50;;
76475;SDS011;65308;50.078;14.854;2024-03-22T00:28:34;13.00;;;6.72;;
76475;SDS011;65308;50.078;14.854;2024-03-22T00:31:01;12.80;;;6.72;;
76475;SDS011;65308;50.078;14.854;2024-03-22T00:33:27;13.38;;;6.50;;
76475;SDS011;65308;50.078;14.854;2024-03-22T00:35:55;12.60;;;6.72;;
76475;SDS011;65308;50.078;14.854;2024-03-22T00:38:20;11.70;;;6.65;;
76475;SDS011;65308;50.078;14.854;2024-03-22T00:40:47;12.73;;;6.80;;
76475;SDS011;65308;50.078;14.854;2024-03-22T00:43:12;12.95;;;6.53;;
76475;SDS011;65308;50.078;14.854;2024-03-22T00:45:39;14.07;;;6.30;;
76475;SDS011;65308;50.078;14.854;2024-03-22T00:48:05;14.10;;;6.90;;
76475;SDS011;65308;50.078;14.854;2024-03-22T00:50:32;14.13;;;6.00;;
76475;SDS011;65308;50.078;14.854;2024-03-22T00:52:59;11.73;;;6.53;;
76475;SDS011;65308;50.078;14.854;2024-03-22T00:55:28;10.32;;;5.75;;
76475;SDS011;65308;50.078;14.854;2024-03-22T00:57:54;10.98;;;5.85;;
76475;SDS011;65308;50.078;14.854;2024-03-22T01:00:20;11.30;;;6.22;;
76475;SDS011;65308;50.078;14.854;2024-03-22T01:02:46;11.18;;;5.78;;
76475;SDS011;65308;50.078;14.854;2024-03-22T01:05:13;10.15;;;5.80;;
76475;SDS011;65308;50.078;14.854;2024-03-22T01:07:39;9.60;;;5.75;;
76475;SDS011;65308;50.078;14.854;2024-03-22T01:10:07;12.25;;;6.18;;
76475;SDS011;65308;50.078;14.854;2024-03-22T01:12:33;11.80;;;5.60;;
76475;SDS011;65308;50.078;14.854;2024-03-22T01:15:00;11.25;;;5.70;;
76475;SDS011;65308;50.078;14.854;2024-03-22T01:17:25;10.27;;;5.75;;
76475;SDS011;65308;50.078;14.854;2024-03-22T01:19:52;12.55;;;6.15;;
76475;SDS011;65308;50.078;14.854;2024-03-22T01:22:17;11.55;;;6.13;;
76475;SDS011;65308;50.078;14.854;2024-03-22T01:24:44;12.43;;;6.35;;
76475;SDS011;65308;50.078;14.854;2024-03-22T01:27:11;12.50;;;6.10;;
76475;SDS011;65308;50.078;14.854;2024-03-22T01:29:38;12.15;;;5.75;;
76475;SDS011;65308;50.078;14.854;2024-03-22T01:32:04;9.70;;;5.68;;
76475;SDS011;65308;50.078;14.854;2024-03-22T01:34:30;10.93;;;5.80;;
76475;SDS011;65308;50.078;14.854;2024-03-22T01:36:56;10.82;;;6.22;;
76475;SDS011;65308;50.078;14.854;2024-03-22T01:39:23;12.68;;;5.63;;
76475;SDS011;65308;50.078;14.854;2024-03-22T01:41:48;11.07;;;6.10;;
76475;SDS011;65308;50.078;14.854;2024-03-22T01:44:17;10.68;;;6.20;;
76475;SDS011;65308;50.078;14.854;2024-03-22T01:46:44;12.43;;;5.90;;
76475;SDS011;65308;50.078;14.854;2024-03-22T01:51:38;11.60;;;4.97;;
76475;SDS011;65308;50.078;14.854;2024-03-22T01:54:05;13.98;;;6.80;;
76475;SDS011;65308;50.078;14.854;2024-03-22T01:56:34;10.73;;;5.68;;
76475;SDS011;65308;50.078;14.854;2024-03-22T01:59:03;12.45;;;6.07;;
76475;SDS011;65308;50.078;14.854;2024-03-22T02:01:31;9.80;;;6.03;;
76475;SDS011;65308;50.078;14.854;2024-03-22T02:03:57;13.40;;;6.55;;
76475;SDS011;65308;50.078;14.854;2024-03-22T02:06:23;12.07;;;5.55;;
76475;SDS011;65308;50.078;14.854;2024-03-22T02:08:50;10.05;;;5.50;;
76475;SDS011;65308;50.078;14.854;2024-03-22T02:11:15;10.02;;;5.32;;
76475;SDS011;65308;50.078;14.854;2024-03-22T02:13:42;10.40;;;5.55;;
76475;SDS011;65308;50.078;14.854;2024-03-22T02:16:08;12.02;;;6.20;;
76475;SDS011;65308;50.078;14.854;2024-03-22T02:18:36;9.48;;;5.57;;
76475;SDS011;65308;50.078;14.854;2024-03-22T02:21:02;12.18;;;5.95;;
76475;SDS011;65308;50.078;14.854;2024-03-22T02:23:32;11.45;;;6.07;;
76475;SDS011;65308;50.078;14.854;2024-03-22T02:25:58;11.00;;;5.65;;
76475;SDS011;65308;50.078;14.854;2024-03-22T02:28:25;12.90;;;6.43;;
76475;SDS011;65308;50.078;14.854;2024-03-22T02:30:51;14.02;;;7.03;;
76475;SDS011;65308;50.078;14.854;2024-03-22T02:33:17;12.90;;;6.93;;
76475;SDS011;65308;50.078;14.854;2024-03-22T02:35:43;12.88;;;7.15;;
76475;SDS011;65308;50.078;14.854;2024-03-22T02:38:12;14.23;;;7.07;;
76475;SDS011;65308;50.078;14.854;2024-03-22T02:40:39;13.18;;;7.25;;
76475;SDS011;65308;50.078;14.854;2024-03-22T02:43:05;13.05;;;7.03;;
76475;SDS011;65308;50.078;14.854;2024-03-22T02:45:31;12.50;;;6.68;;
76475;SDS011;65308;50.078;14.854;2024-03-22T02:47:58;13.23;;;6.75;;
76475;SDS011;65308;50.078;14.854;2024-03-22T02:50:24;12.27;;;6.75;;
76475;SDS011;65308;50.078;14.854;2024-03-22T02:52:50;13.75;;;7.07;;
76475;SDS011;65308;50.078;14.854;2024-03-22T02:55:16;11.23;;;6.55;;
76475;SDS011;65308;50.078;14.854;2024-03-22T02:57:44;12.93;;;6.63;;
76475;SDS011;65308;50.078;14.854;2024-03-22T03:00:10;12.65;;;7.32;;
76475;SDS011;65308;50.078;14.854;2024-03-22T03:05:03;13.35;;;7.15;;
76475;SDS011;65308;50.078;14.854;2024-03-22T03:07:31;14.18;;;7.55;;
76475;SDS011;65308;50.078;14.854;2024-03-22T03:09:56;15.55;;;7.68;;
76475;SDS011;65308;50.078;14.854;2024-03-22T03:12:23;18.33;;;9.07;;
76475;SDS011;65308;50.078;14.854;2024-03-22T03:14:50;16.50;;;8.63;;
76475;SDS011;65308;50.078;14.854;2024-03-22T03:17:16;17.85;;;9.48;;
76475;SDS011;65308;50.078;14.854;2024-03-22T03:19:42;15.15;;;8.18;;
76475;SDS011;65308;50.078;14.854;2024-03-22T03:22:08;18.63;;;9.98;;
76475;SDS011;65308;50.078;14.854;2024-03-22T03:24:34;18.92;;;10.52;;
76475;SDS011;65308;50.078;14.854;2024-03-22T03:27:00;27.92;;;15.25;;
76475;SDS011;65308;50.078;14.854;2024-03-22T03:29:27;39.97;;;20.75;;
76475;SDS011;65308;50.078;14.854;2024-03-22T03:31:55;42.00;;;22.70;;
76475;SDS011;65308;50.078;14.854;2024-03-22T03:34:21;25.52;;;14.05;;
76475;SDS011;65308;50.078;14.854;2024-03-22T03:36:48;23.75;;;12.27;;
76475;SDS011;65308;50.078;14.854;2024-03-22T03:39:13;17.05;;;9.15;;
76475;SDS011;65308;50.078;14.854;2024-03-22T03:41:40;16.33;;;8.95;;
76475;SDS011;65308;50.078;14.854;2024-03-22T03:44:05;16.30;;;8.20;;
76475;SDS011;65308;50.078;14.854;2024-03-22T03:46:32;14.88;;;7.22;;
76475;SDS011;65308;50.078;14.854;2024-03-22T03:48:59;13.68;;;7.57;;
76475;SDS011;65308;50.078;14.854;2024-03-22T03:51:26;13.80;;;7.32;;
76475;SDS011;65308;50.078;14.854;2024-03-22T03:53:52;16.15;;;7.97;;
76475;SDS011;65308;50.078;14.854;2024-03-22T03:56:18;14.82;;;8.10;;
76475;SDS011;65308;50.078;14.854;2024-03-22T03:58:45;14.40;;;7.80;;
76475;SDS011;65308;50.078;14.854;2024-03-22T04:03:37;15.73;;;7.22;;
76475;SDS011;65308;50.078;14.854;2024-03-22T04:06:05;14.40;;;7.50;;
76475;SDS011;65308;50.078;14.854;2024-03-22T04:08:31;13.35;;;7.05;;
76475;SDS011;65308;50.078;14.854;2024-03-22T04:10:59;13.77;;;7.40;;
76475;SDS011;65308;50.078;14.854;2024-03-22T04:13:25;14.05;;;7.45;;
76475;SDS011;65308;50.078;14.854;2024-03-22T04:15:51;12.63;;;6.93;;
76475;SDS011;65308;50.078;14.854;2024-03-22T04:18:17;13.82;;;7.05;;
76475;SDS011;65308;50.078;14.854;2024-03-22T04:20:52;15.32;;;8.10;;
76475;SDS011;65308;50.078;14.854;2024-03-22T04:23:20;15.27;;;7.75;;
76475;SDS011;65308;50.078;14.854;2024-03-22T04:25:51;14.02;;;7.38;;
76475;SDS011;65308;50.078;14.854;2024-03-22T04:28:17;11.60;;;6.30;;
76475;SDS011;65308;50.078;14.854;2024-03-22T04:30:53;13.75;;;7.10;;
76475;SDS011;65308;50.078;14.854;2024-03-22T04:33:19;14.02;;;8.00;;
76475;SDS011;65308;50.078;14.854;2024-03-22T04:35:46;16.10;;;8.32;;
76475;SDS011;65308;50.078;14.854;2024-03-22T04:38:11;13.38;;;7.47;;
76475;SDS011;65308;50.078;14.854;2024-03-22T04:40:39;14.18;;;7.65;;
76475;SDS011;65308;50.078;14.854;2024-03-22T04:43:07;13.80;;;7.20;;
76475;SDS011;65308;50.078;14.854;2024-03-22T04:45:34;15.80;;;7.03;;
76475;SDS011;65308;50.078;14.854;2024-03-22T04:48:01;14.48;;;8.10;;
76475;SDS011;65308;50.078;14.854;2024-03-22T04:50:26;14.95;;;8.25;;
76475;SDS011;65308;50.078;14.854;2024-03-22T04:52:53;12.88;;;6.82;;
76475;SDS011;65308;50.078;14.854;2024-03-22T04:55:19;15.63;;;7.88;;
76475;SDS011;65308;50.078;14.854;2024-03-22T04:57:47;15.88;;;8.32;;
76475;SDS011;65308;50.078;14.854;2024-03-22T05:00:14;16.40;;;8.82;;
76475;SDS011;65308;50.078;14.854;2024-03-22T05:02:40;12.73;;;7.47;;
76475;SDS011;65308;50.078;14.854;2024-03-22T05:05:07;13.15;;;7.63;;
76475;SDS011;65308;50.078;14.854;2024-03-22T05:07:33;13.93;;;7.80;;
76475;SDS011;65308;50.078;14.854;2024-03-22T05:10:00;15.00;;;7.70;;
76475;SDS011;65308;50.078;14.854;2024-03-22T05:12:25;18.25;;;8.60;;
76475;SDS011;65308;50.078;14.854;2024-03-22T05:14:53;17.10;;;8.60;;
76475;SDS011;65308;50.078;14.854;2024-03-22T05:17:19;14.77;;;8.18;;
76475;SDS011;65308;50.078;14.854;2024-03-22T05:19:45;13.27;;;7.72;;
76475;SDS011;65308;50.078;14.854;2024-03-22T05:22:11;16.40;;;7.50;;
76475;SDS011;65308;50.078;14.854;2024-03-22T05:24:37;13.80;;;7.75;;
76475;SDS011;65308;50.078;14.854;2024-03-22T05:27:03;14.38;;;7.90;;
76475;SDS011;65308;50.078;14.854;2024-03-22T05:29:30;15.90;;;8.57;;
76475;SDS011;65308;50.078;14.854;2024-03-22T05:31:57;15.85;;;8.30;;
76475;SDS011;65308;50.078;14.854;2024-03-22T05:34:23;14.88;;;8.55;;
76475;SDS011;65308;50.078;14.854;2024-03-22T05:36:49;16.95;;;8.65;;
76475;SDS011;65308;50.078;14.854;2024-03-22T05:39:15;15.95;;;7.78;;
76475;SDS011;65308;50.078;14.854;2024-03-22T05:41:41;14.05;;;7.18;;
76475;SDS011;65308;50.078;14.854;2024-03-22T05:44:08;14.88;;;7.50;;
76475;SDS011;65308;50.078;14.854;2024-03-22T05:46:33;13.23;;;7.00;;
76475;SDS011;65308;50.078;14.854;2024-03-22T05:49:01;12.48;;;6.45;;
76475;SDS011;65308;50.078;14.854;2024-03-22T05:51:27;13.63;;;7.10;;
76475;SDS011;65308;50.078;14.854;2024-03-22T05:53:55;12.30;;;7.18;;
76475;SDS011;65308;50.078;14.854;2024-03-22T05:56:21;11.50;;;6.53;;
76475;SDS011;65308;50.078;14.854;2024-03-22T05:58:48;12.10;;;6.35;;
76475;SDS011;65308;50.078;14.854;2024-03-22T06:01:14;11.73;;;7.05;;
76475;SDS011;65308;50.078;14.854;2024-03-22T06:03:40;10.80;;;6.50;;
76475;SDS011;65308;50.078;14.854;2024-03-22T06:06:07;10.95;;;6.32;;
76475;SDS011;65308;50.078;14.854;2024-03-22T06:08:34;10.98;;;6.03;;
76475;SDS011;65308;50.078;14.854;2024-03-22T06:11:00;12.90;;;6.13;;
76475;SDS011;65308;50.078;14.854;2024-03-22T06:13:27;10.13;;;6.63;;
76475;SDS011;65308;50.078;14.854;2024-03-22T06:15:52;12.25;;;5.78;;
76475;SDS011;65308;50.078;14.854;2024-03-22T06:18:19;10.30;;;5.15;;
76475;SDS011;65308;50.078;14.854;2024-03-22T06:20:45;9.45;;;5.50;;
76475;SDS011;65308;50.078;14.854;2024-03-22T06:23:13;10.68;;;4.78;;
76475;SDS011;65308;50.078;14.854;2024-03-22T06:25:38;8.77;;;4.88;;
76475;SDS011;65308;50.078;14.854;2024-03-22T06:28:05;8.13;;;5.18;;
76475;SDS011;65308;50.078;14.854;2024-03-22T06:30:30;7.97;;;4.75;;
76475;SDS011;65308;50.078;14.854;2024-03-22T06:32:57;28.52;;;5.47;;
76475;SDS011;65308;50.078;14.854;2024-03-22T06:35:22;7.45;;;4.60;;
76475;SDS011;65308;50.078;14.854;2024-03-22T06:37:49;8.95;;;4.93;;
76475;SDS011;65308;50.078;14.854;2024-03-22T06:40:16;9.25;;;4.90;;
76475;SDS011;65308;50.078;14.854;2024-03-22T06:42:43;8.40;;;5.35;;
76475;SDS011;65308;50.078;14.854;2024-03-22T06:45:09;7.95;;;5.28;;
76475;SDS011;65308;50.078;14.854;2024-03-22T06:47:36;7.70;;;4.68;;
76475;SDS011;65308;50.078;14.854;2024-03-22T06:50:01;10.82;;;4.90;;
76475;SDS011;65308;50.078;14.854;2024-03-22T06:52:28;9.55;;;4.22;;
76475;SDS011;65308;50.078;14.854;2024-03-22T06:54:54;7.78;;;4.70;;
76475;SDS011;65308;50.078;14.854;2024-03-22T06:57:22;6.32;;;4.28;;
76475;SDS011;65308;50.078;14.854;2024-03-22T06:59:47;7.47;;;4.43;;
76475;SDS011;65308;50.078;14.854;2024-03-22T07:02:14;7.18;;;4.40;;
76475;SDS011;65308;50.078;14.854;2024-03-22T07:04:39;10.00;;;5.18;;
76475;SDS011;65308;50.078;14.854;2024-03-22T07:07:06;10.15;;;5.50;;
76475;SDS011;65308;50.078;14.854;2024-03-22T07:09:32;8.27;;;4.97;;
76475;SDS011;65308;50.078;14.854;2024-03-22T07:11:59;6.10;;;4.15;;
76475;SDS011;65308;50.078;14.854;2024-03-22T07:14:26;6.43;;;4.07;;
76475;SDS011;65308;50.078;14.854;2024-03-22T07:16:53;6.63;;;3.70;;
76475;SDS011;65308;50.078;14.854;2024-03-22T07:19:19;5.55;;;3.72;;
76475;SDS011;65308;50.078;14.854;2024-03-22T07:21:45;6.43;;;4.32;;
76475;SDS011;65308;50.078;14.854;2024-03-22T07:24:11;6.43;;;4.00;;
76475;SDS011;65308;50.078;14.854;2024-03-22T07:26:38;6.03;;;4.30;;
76475;SDS011;65308;50.078;14.854;2024-03-22T07:29:03;6.53;;;4.50;;
76475;SDS011;65308;50.078;14.854;2024-03-22T07:31:31;5.95;;;4.15;;
76475;SDS011;65308;50.078;14.854;2024-03-22T07:33:57;7.03;;;4.75;;
76475;SDS011;65308;50.078;14.854;2024-03-22T07:36:24;5.50;;;4.05;;
76475;SDS011;65308;50.078;14.854;2024-03-22T07:38:51;6.93;;;4.25;;
76475;SDS011;65308;50.078;14.854;2024-03-22T07:41:18;6.25;;;4.35;;
76475;SDS011;65308;50.078;14.854;2024-03-22T07:43:44;5.55;;;3.80;;
76475;SDS011;65308;50.078;14.854;2024-03-22T07:46:10;7.90;;;4.82;;
76475;SDS011;65308;50.078;14.854;2024-03-22T07:48:38;7.47;;;4.00;;
76475;SDS011;65308;50.078;14.854;2024-03-22T07:51:04;5.45;;;4.15;;
76475;SDS011;65308;50.078;14.854;2024-03-22T07:53:30;6.30;;;4.20;;
76475;SDS011;65308;50.078;14.854;2024-03-22T07:55:57;5.95;;;4.20;;
76475;SDS011;65308;50.078;14.854;2024-03-22T07:58:22;5.80;;;4.35;;
76475;SDS011;65308;50.078;14.854;2024-03-22T08:00:49;5.43;;;4.05;;
76475;SDS011;65308;50.078;14.854;2024-03-22T08:03:15;6.18;;;4.63;;
76475;SDS011;65308;50.078;14.854;2024-03-22T08:05:43;6.03;;;3.95;;
76475;SDS011;65308;50.078;14.854;2024-03-22T08:08:09;5.75;;;4.15;;
76475;SDS011;65308;50.078;14.854;2024-03-22T08:10:36;7.55;;;4.47;;
76475;SDS011;65308;50.078;14.854;2024-03-22T08:13:01;5.70;;;4.40;;
76475;SDS011;65308;50.078;14.854;2024-03-22T08:15:28;5.90;;;4.00;;
76475;SDS011;65308;50.078;14.854;2024-03-22T08:17:55;20.45;;;5.15;;
76475;SDS011;65308;50.078;14.854;2024-03-22T08:20:22;5.53;;;4.10;;
76475;SDS011;65308;50.078;14.854;2024-03-22T08:22:49;5.78;;;4.20;;
76475;SDS011;65308;50.078;14.854;2024-03-22T08:25:16;6.40;;;4.30;;
76475;SDS011;65308;50.078;14.854;2024-03-22T08:27:42;5.63;;;4.45;;
76475;SDS011;65308;50.078;14.854;2024-03-22T08:30:09;8.02;;;4.82;;
76475;SDS011;65308;50.078;14.854;2024-03-22T08:32:36;6.05;;;4.63;;
76475;SDS011;65308;50.078;14.854;2024-03-22T08:35:03;7.57;;;4.68;;
76475;SDS011;65308;50.078;14.854;2024-03-22T08:37:29;6.95;;;5.10;;
76475;SDS011;65308;50.078;14.854;2024-03-22T08:39:57;6.10;;;5.03;;
76475;SDS011;65308;50.078;14.854;2024-03-22T08:42:23;6.50;;;5.50;;
76475;SDS011;65308;50.078;14.854;2024-03-22T08:44:49;6.40;;;5.35;;
76475;SDS011;65308;50.078;14.854;2024-03-22T08:47:15;6.35;;;5.60;;
76475;SDS011;65308;50.078;14.854;2024-03-22T08:49:41;7.95;;;6.28;;
76475;SDS011;65308;50.078;14.854;2024-03-22T08:52:09;8.68;;;6.22;;
76475;SDS011;65308;50.078;14.854;2024-03-22T08:54:36;7.20;;;5.03;;
76475;SDS011;65308;50.078;14.854;2024-03-22T08:57:03;7.68;;;6.15;;
76475;SDS011;65308;50.078;14.854;2024-03-22T08:59:29;6.32;;;5.63;;
76475;SDS011;65308;50.078;14.854;2024-03-22T09:01:55;6.68;;;5.93;;
76475;SDS011;65308;50.078;14.854;2024-03-22T09:04:21;7.55;;;5.97;;
76475;SDS011;65308;50.078;14.854;2024-03-22T09:06:47;7.05;;;6.00;;
76475;SDS011;65308;50.078;14.854;2024-03-22T09:09:13;6.55;;;5.80;;
76475;SDS011;65308;50.078;14.854;2024-03-22T09:11:39;7.35;;;5.95;;
76475;SDS011;65308;50.078;14.854;2024-03-22T09:14:07;8.30;;;6.20;;
76475;SDS011;65308;50.078;14.854;2024-03-22T09:16:32;7.45;;;6.28;;
76475;SDS011;65308;50.078;14.854;2024-03-22T09:18:59;7.00;;;5.72;;
76475;SDS011;65308;50.078;14.854;2024-03-22T09:21:25;6.68;;;5.30;;
76475;SDS011;65308;50.078;14.854;2024-03-22T09:23:51;8.68;;;6.43;;
76475;SDS011;65308;50.078;14.854;2024-03-22T09:26:17;7.55;;;6.13;;
76475;SDS011;65308;50.078;14.854;2024-03-22T09:28:45;8.00;;;5.72;;
76475;SDS011;65308;50.078;14.854;2024-03-22T09:31:12;7.38;;;5.78;;
76475;SDS011;65308;50.078;14.854;2024-03-22T09:33:39;7.53;;;6.07;;
76475;SDS011;65308;50.078;14.854;2024-03-22T09:36:05;8.38;;;6.10;;
76475;SDS011;65308;50.078;14.854;2024-03-22T09:38:32;7.75;;;5.75;;
76475;SDS011;65308;50.078;14.854;2024-03-22T09:40:58;7.03;;;5.68;;
76475;SDS011;65308;50.078;14.854;2024-03-22T09:43:25;7.20;;;5.00;;
76475;SDS011;65308;50.078;14.854;2024-03-22T09:45:52;8.45;;;6.05;;
76475;SDS011;65308;50.078;14.854;2024-03-22T09:48:21;8.13;;;5.95;;
76475;SDS011;65308;50.078;14.854;2024-03-22T09:50:48;7.75;;;5.97;;
76475;SDS011;65308;50.078;14.854;2024-03-22T09:53:17;7.97;;;6.15;;
76475;SDS011;65308;50.078;14.854;2024-03-22T09:55:44;8.68;;;6.22;;
76475;SDS011;65308;50.078;14.854;2024-03-22T09:58:11;8.05;;;5.78;;
76475;SDS011;65308;50.078;14.854;2024-03-22T10:00:36;8.73;;;5.80;;
76475;SDS011;65308;50.078;14.854;2024-03-22T10:03:03;7.72;;;6.53;;
76475;SDS011;65308;50.078;14.854;2024-03-22T10:05:31;8.68;;;5.90;;
76475;SDS011;65308;50.078;14.854;2024-03-22T10:07:58;9.10;;;6.20;;
76475;SDS011;65308;50.078;14.854;2024-03-22T10:10:23;9.65;;;6.00;;
76475;SDS011;65308;50.078;14.854;2024-03-22T10:12:51;10.07;;;6.10;;
76475;SDS011;65308;50.078;14.854;2024-03-22T10:15:18;8.98;;;5.90;;
76475;SDS011;65308;50.078;14.854;2024-03-22T10:17:45;8.23;;;6.18;;
76475;SDS011;65308;50.078;14.854;2024-03-22T10:20:12;8.63;;;5.63;;
76475;SDS011;65308;50.078;14.854;2024-03-22T10:22:43;9.73;;;6.47;;
76475;SDS011;65308;50.078;14.854;2024-03-22T10:25:08;10.02;;;6.57;;
76475;SDS011;65308;50.078;14.854;2024-03-22T10:27:37;9.25;;;5.57;;
76475;SDS011;65308;50.078;14.854;2024-03-22T10:30:04;11.80;;;5.88;;
76475;SDS011;65308;50.078;14.854;2024-03-22T10:32:35;11.52;;;6.45;;
76475;SDS011;65308;50.078;14.854;2024-03-22T10:35:01;9.00;;;6.07;;
76475;SDS011;65308;50.078;14.854;2024-03-22T10:37:30;9.13;;;6.07;;
76475;SDS011;65308;50.078;14.854;2024-03-22T10:39:58;9.85;;;6.22;;
76475;SDS011;65308;50.078;14.854;2024-03-22T10:42:32;9.93;;;5.95;;
76475;SDS011;65308;50.078;14.854;2024-03-22T10:44:58;10.32;;;5.63;;
76475;SDS011;65308;50.078;14.854;2024-03-22T10:47:25;9.20;;;5.85;;
76475;SDS011;65308;50.078;14.854;2024-03-22T10:49:55;9.75;;;5.82;;
76475;SDS011;65308;50.078;14.854;2024-03-22T10:52:28;8.82;;;5.20;;
76475;SDS011;65308;50.078;14.854;2024-03-22T10:54:55;8.40;;;5.40;;
76475;SDS011;65308;50.078;14.854;2024-03-22T10:57:22;8.95;;;5.63;;
76475;SDS011;65308;50.078;14.854;2024-03-22T10:59:49;9.18;;;5.28;;
76475;SDS011;65308;50.078;14.854;2024-03-22T11:02:23;8.73;;;5.57;;
76475;SDS011;65308;50.078;14.854;2024-03-22T11:04:53;6.72;;;4.40;;
76475;SDS011;65308;50.078;14.854;2024-03-22T11:07:21;7.00;;;4.03;;
76475;SDS011;65308;50.078;14.854;2024-03-22T11:09:51;6.72;;;3.78;;
76475;SDS011;65308;50.078;14.854;2024-03-22T11:12:18;9.02;;;4.57;;
76475;SDS011;65308;50.078;14.854;2024-03-22T11:14:47;8.82;;;4.88;;
76475;SDS011;65308;50.078;14.854;2024-03-22T11:17:15;8.23;;;5.10;;
76475;SDS011;65308;50.078;14.854;2024-03-22T11:19:40;6.40;;;4.22;;
76475;SDS011;65308;50.078;14.854;2024-03-22T11:22:07;7.88;;;5.05;;
76475;SDS011;65308;50.078;14.854;2024-03-22T11:24:33;7.53;;;4.60;;
76475;SDS011;65308;50.078;14.854;2024-03-22T11:27:00;8.32;;;5.13;;
76475;SDS011;65308;50.078;14.854;2024-03-22T11:29:26;8.15;;;5.05;;
76475;SDS011;65308;50.078;14.854;2024-03-22T11:31:54;9.77;;;5.70;;
76475;SDS011;65308;50.078;14.854;2024-03-22T11:34:20;9.93;;;6.50;;
76475;SDS011;65308;50.078;14.854;2024-03-22T11:36:46;10.70;;;6.28;;
76475;SDS011;65308;50.078;14.854;2024-03-22T11:39:14;10.13;;;6.25;;
76475;SDS011;65308;50.078;14.854;2024-03-22T11:41:40;9.77;;;6.03;;
76475;SDS011;65308;50.078;14.854;2024-03-22T11:44:07;9.70;;;5.88;;
76475;SDS011;65308;50.078;14.854;2024-03-22T11:46:32;10.75;;;6.55;;
76475;SDS011;65308;50.078;14.854;2024-03-22T11:49:01;11.38;;;6.85;;
76475;SDS011;65308;50.078;14.854;2024-03-22T11:51:26;11.80;;;7.07;;
76475;SDS011;65308;50.078;14.854;2024-03-22T11:53:54;11.60;;;7.03;;
76475;SDS011;65308;50.078;14.854;2024-03-22T11:56:21;10.40;;;5.95;;
76475;SDS011;65308;50.078;14.854;2024-03-22T11:58:48;9.85;;;5.60;;
76475;SDS011;65308;50.078;14.854;2024-03-22T12:01:14;12.40;;;6.03;;
76475;SDS011;65308;50.078;14.854;2024-03-22T12:03:43;10.93;;;6.22;;
76475;SDS011;65308;50.078;14.854;2024-03-22T12:06:10;10.07;;;6.13;;
76475;SDS011;65308;50.078;14.854;2024-03-22T12:08:37;12.05;;;7.15;;
76475;SDS011;65308;50.078;14.854;2024-03-22T12:11:03;11.02;;;6.93;;
76475;SDS011;65308;50.078;14.854;2024-03-22T12:13:30;13.32;;;6.75;;
76475;SDS011;65308;50.078;14.854;2024-03-22T12:15:55;11.25;;;6.03;;
76475;SDS011;65308;50.078;14.854;2024-03-22T12:18:22;28.45;;;6.10;;
76475;SDS011;65308;50.078;14.854;2024-03-22T12:20:48;6.22;;;3.40;;
76475;SDS011;65308;50.078;14.854;2024-03-22T12:23:16;7.20;;;3.40;;
76475;SDS011;65308;50.078;14.854;2024-03-22T12:25:41;6.13;;;3.20;;
76475;SDS011;65308;50.078;14.854;2024-03-22T12:28:08;5.60;;;3.00;;
76475;SDS011;65308;50.078;14.854;2024-03-22T12:30:33;5.68;;;3.70;;
76475;SDS011;65308;50.078;14.854;2024-03-22T12:33:00;5.85;;;3.33;;
76475;SDS011;65308;50.078;14.854;2024-03-22T12:35:26;6.03;;;3.22;;
76475;SDS011;65308;50.078;14.854;2024-03-22T12:37:53;6.47;;;3.78;;
76475;SDS011;65308;50.078;14.854;2024-03-22T12:40:20;7.65;;;3.75;;
76475;SDS011;65308;50.078;14.854;2024-03-22T12:42:46;5.40;;;3.13;;
76475;SDS011;65308;50.078;14.854;2024-03-22T12:45:12;7.90;;;4.88;;
76475;SDS011;65308;50.078;14.854;2024-03-22T12:47:39;9.07;;;5.32;;
76475;SDS011;65308;50.078;14.854;2024-03-22T12:50:04;9.55;;;5.93;;
76475;SDS011;65308;50.078;14.854;2024-03-22T12:52:32;10.68;;;6.60;;
76475;SDS011;65308;50.078;14.854;2024-03-22T12:54:58;9.95;;;5.93;;
76475;SDS011;65308;50.078;14.854;2024-03-22T12:57:26;11.32;;;6.82;;
76475;SDS011;65308;50.078;14.854;2024-03-22T12:59:52;11.18;;;6.63;;
76475;SDS011;65308;50.078;14.854;2024-03-22T13:02:19;14.60;;;6.25;;
76475;SDS011;65308;50.078;14.854;2024-03-22T13:04:44;140.93;;;16.95;;
76475;SDS011;65308;50.078;14.854;2024-03-22T13:07:11;10.18;;;5.80;;
76475;SDS011;65308;50.078;14.854;2024-03-22T13:09:36;9.63;;;5.45;;
76475;SDS011;65308;50.078;14.854;2024-03-22T13:12:03;9.75;;;5.75;;
76475;SDS011;65308;50.078;14.854;2024-03-22T13:14:30;11.23;;;6.20;;
76475;SDS011;65308;50.078;14.854;2024-03-22T13:16:57;10.75;;;5.88;;
76475;SDS011;65308;50.078;14.854;2024-03-22T13:19:23;12.52;;;6.72;;
76475;SDS011;65308;50.078;14.854;2024-03-22T13:21:49;9.68;;;6.13;;
76475;SDS011;65308;50.078;14.854;2024-03-22T13:24:15;9.48;;;5.53;;
76475;SDS011;65308;50.078;14.854;2024-03-22T13:29:08;11.13;;;5.90;;
76475;SDS011;65308;50.078;14.854;2024-03-22T13:31:36;9.80;;;5.97;;
76475;SDS011;65308;50.078;14.854;2024-03-22T13:34:02;10.27;;;5.97;;
76475;SDS011;65308;50.078;14.854;2024-03-22T13:36:28;10.40;;;5.88;;
76475;SDS011;65308;50.078;14.854;2024-03-22T13:38:57;11.57;;;5.70;;
76475;SDS011;65308;50.078;14.854;2024-03-22T13:41:24;8.60;;;5.65;;
76475;SDS011;65308;50.078;14.854;2024-03-22T13:43:50;8.00;;;4.57;;
76475;SDS011;65308;50.078;14.854;2024-03-22T13:46:16;9.52;;;4.75;;
76475;SDS011;65308;50.078;14.854;2024-03-22T13:48:44;8.00;;;5.05;;
76475;SDS011;65308;50.078;14.854;2024-03-22T13:51:10;9.80;;;4.90;;
76475;SDS011;65308;50.078;14.854;2024-03-22T13:53:36;8.70;;;5.35;;
76475;SDS011;65308;50.078;14.854;2024-03-22T13:56:03;8.95;;;5.22;;
76475;SDS011;65308;50.078;14.854;2024-03-22T13:58:28;9.82;;;4.93;;
76475;SDS011;65308;50.078;14.854;2024-03-22T14:00:55;8.95;;;5.32;;
76475;SDS011;65308;50.078;14.854;2024-03-22T14:03:21;8.80;;;5.50;;
76475;SDS011;65308;50.078;14.854;2024-03-22T14:05:49;8.75;;;4.55;;
76475;SDS011;65308;50.078;14.854;2024-03-22T14:08:14;9.27;;;5.15;;
76475;SDS011;65308;50.078;14.854;2024-03-22T14:10:41;7.88;;;4.80;;
76475;SDS011;65308;50.078;14.854;2024-03-22T14:13:07;7.03;;;3.65;;
76475;SDS011;65308;50.078;14.854;2024-03-22T14:15:33;8.07;;;4.65;;
76475;SDS011;65308;50.078;14.854;2024-03-22T14:18:00;8.60;;;4.32;;
76475;SDS011;65308;50.078;14.854;2024-03-22T14:22:55;7.28;;;4.13;;
76475;SDS011;65308;50.078;14.854;2024-03-22T14:25:22;8.20;;;4.68;;
76475;SDS011;65308;50.078;14.854;2024-03-22T14:27:48;8.32;;;4.60;;
76475;SDS011;65308;50.078;14.854;2024-03-22T14:30:15;8.40;;;4.80;;
76475;SDS011;65308;50.078;14.854;2024-03-22T14:32:41;7.80;;;3.92;;
76475;SDS011;65308;50.078;14.854;2024-03-22T14:35:10;9.38;;;4.57;;
76475;SDS011;65308;50.078;14.854;2024-03-22T14:37:36;7.75;;;4.35;;